Ancora, New Jersey
Current Conditions -  °F | °C
As of 2:54 PM on Sunday 21 Dec 2014 (Local Time) from KACY Reporting Station
Clear Clear  
Wind Chill: 36°   Ceiling: Unl
Heat Index: 41°   Visibility: 10mi
Dew Point: 21°   Wind: 7mph
Humidity: 45%   Direction: 340°NNW
Pressure: 30.28"   Gusts: NA
Location:  39.637°N, 74.7602°W
Report Text: KACY 211954Z 34006KT 10SM CLR 05/M06 A3028 RMK AO2 SLP254 T00501061
Loading
Personal Weather Stations






























Interactive Weather Map New forecast layout! Learn more

10-Day Weather Forecast

Advertisements
Track Severe Weather on mobile